Aktualne dane pomiarowe

Uwaga, wersja testowa! Automatyczne pobieranie danych za pomocą narzędzi lub skryptów to umożliwiających jest zabronione.

Dane meteo z obszaru Polski uzyskane na podstawie depesz SYNOP pobieranych co godzinę z NWS. Najedź myszką na symbol przedstawiony w tabeli, aby uzyskać informacje co do jego znaczenia. Prosimy pamiętać, że to testowa wersja strony, która jeszcze nie jest ukończona. Stworzono również jest krótki FAQ dotyczący korzystania z tej podstrony Anomalie temperatury w chwili obecnej odniesione są do okresu referencyjnego 1951-2016. Okres ten będzie później zmieniony na 1981-2010. Kliknij ikonę aby pobrać plik CSV. Kliknij ikonę aby wygenerować mapę synoptyczną dla danego terminu.

Wybierz Datę:    

        

Łódź (12465)

Dane terminowe dla wybranej stacji. Kliknij datę, aby otrzymać dane z tego terminu dla wszystkich stacji.

TemperaturaZachmurzenieWiatrCiśnienieOpadyPogoda
 Data t td wb tx tn tg rh  Nt Nl Cl Cm Ch ws wd g1 g2 wx mslp ppp ch 24h 12h t ww ww w1 w2  
2019-06-30 23:00:00 24.9 12.6 17.3--- 4620.0wx-wx3wx--31011.2 990.4 -0.2---------
2019-06-30 22:00:00 26.2 12.0 17.6--- 4120.0wx-wx3wx--31011.1 990.4 0.1---------
2019-06-30 21:00:00 27.4 11.5 17.8--- 3720.0wx-wx3wx--31011.1 990.5 0.2---------
2019-06-30 20:00:00 28.9 10.2 17.8--- 3120.0wx-wxwx3wx---1011.1 990.6 0.2---------
2019-06-30 19:00:00 29.7 9.3 17.7--- 2820.0wx-wx2wx--21010.7 990.3 -0.8---------
2019-06-30 18:00:00 33.1 7.9 18.3 36.3 22.1- 2120.0wx-3wx-1031010.5 990.3 -1.4- 0.012------
2019-06-30 17:00:00 34.8 7.8 18.9--- 1920.0wx-4wx--41010.5 990.4 -2.0---------
2019-06-30 16:00:00 35.4 5.8 18.3--- 1620.0wx-5wx--51011.2 991.1 -2.0---------
2019-06-30 15:00:00 35.6 6.9 18.8--- 1720.0wx-5wx101051011.8 991.7 -2.0---------
2019-06-30 14:00:00 35.0 6.4 18.4--- 1720.0wx-5wx-1051012.5 992.4 -1.9---------
2019-06-30 13:00:00 34.7 7.0 18.5--- 1820.0wx-5wx--51013.3 993.1 -1.9---------
2019-06-30 12:00:00 33.8 7.0 18.2--- 1920.0wx-wx5wx-1051013.9 993.7 -1.7- 0.06------
2019-06-30 11:00:00 32.2 7.2 17.7--- 2120.0wx-wx5wx--51014.7 994.3 -1.3---------
2019-06-30 10:00:00 31.0 8.7 17.9--- 2520.0wx-4wx--41015.5 995.0 -0.9---------
2019-06-30 09:00:00 30.0 8.5 17.5--- 2620.0wx-6wx---1015.9 995.4 -0.7---------
2019-06-30 08:00:00 28.6 9.4 17.4--- 3020.0wx-5wx--51016.2 995.6 -0.5---------
2019-06-30 07:00:00 26.3 10.5 16.9--- 3720.0wx-4wx--41016.7 995.9 0.0---------
2019-06-30 06:00:00 22.2 12.8 16.3 26.3 11.9 9 5520.0wx-2wx--21017.2 996.1 0.2- 0.012----- 15.6
2019-06-30 05:00:00 18.8 11.8 14.4--- 6420.0wx-wx1wx--11017.4 996.1 0.3---------
2019-06-30 04:00:00 14.5 10.7 12.0--- 7820.0wx-1wx---1017.6 995.9 -0.3---------
2019-06-30 03:00:00 12.1 9.8 10.6--- 8620.0wx-1wx--11017.7 995.9 -0.5---------
2019-06-30 02:00:00 12.6 9.2 10.4--- 8020.0wx-1wx--11017.6 995.8 -0.8---------
2019-06-30 01:00:00 12.9 9.3 10.6--- 7920.0wx-1wx--11018.0 996.2 -0.4---------
2019-06-30 00:00:00 13.7 9.5 11.0--- 7620.0wx-0---01018.1 996.4 -0.4- 0.06------
2019-06-29 23:00:00 13.9 9.5 11.1--- 7520.0wx-0----1018.3 996.6 -0.3---------
2019-06-29 22:00:00 14.9 9.5 11.5--- 7020.0wx-wx0----1018.2 996.6 -0.1---------
2019-06-29 21:00:00 15.9 9.3 11.9--- 6520.0wx-wx1wx--11018.4 996.8 0.1---------
2019-06-29 20:00:00 18.0 9.1 12.7--- 5620.0wx-wx0---01018.3 996.9 0.4---------
2019-06-29 19:00:00 21.6 8.6 14.1--- 4320.0wx-wx1wx--11017.8 996.7 0.0---------
2019-06-29 18:00:00 26.3 5.9 15.0 28.4 18.7- 2720.0wx-wx3wx-1231017.5 996.7 -0.2- 0.012------
2019-06-29 17:00:00 27.3 5.6 15.3--- 2520.0wx-wx5wx---1017.2 996.5 -0.9---------
2019-06-29 16:00:00 27.6 4.7 15.0--- 2320.0wx-wx6wx---1017.4 996.7 -1.0---------
2019-06-29 15:00:00 27.6 4.0 14.8--- 2220.0wx-wx6wx-1261017.6 996.9 -1.3---------
2019-06-29 14:00:00 27.8 5.5 15.4--- 2420.0wx-wx7wx---1018.1 997.4 -1.6---------
2019-06-29 13:00:00 27.0 7.5 15.9--- 2920.0wx-wx5wx10--1018.5 997.7 -1.6---------
2019-06-29 12:00:00 26.3 7.9 15.8--- 3120.0wx-wx7wx-1271019.0 998.2 -1.7- 0.06------
2019-06-29 11:00:00 25.4 8.0 15.5--- 3320.0wx-wx7wx-1071019.9 999.0 -1.1---------
2019-06-29 10:00:00 24.1 7.8 14.9--- 3520.0wx-wxwx6wx111261020.3 999.3 -1.2---------
2019-06-29 09:00:00 23.1 6.9 14.1--- 3520.0wx-wxwx6wx-1061021.0 999.9 -0.7---------
2019-06-29 08:00:00 21.9 4.5 12.6--- 3220.0wx-wx5wx--51021.31000.1 -0.6---------
2019-06-29 07:00:00 20.6 5.5 12.4--- 3720.0wx-wx4wx--41021.81000.5 -0.2---------
2019-06-29 06:00:00 18.7 6.2 11.8 21.6 7.0 5 4420.0wx-wx3wx--31022.01000.6 -0.1- 0.012----- 6.8
2019-06-29 05:00:00 14.1 8.5 10.7--- 6920.0wx-wx0---01022.51000.7 0.0---------
2019-06-29 04:00:00 9.4 7.5 8.1--- 8820.0wx-wx0---01022.91000.7 0.1---------
2019-06-29 03:00:00 7.4 5.9 6.4--- 9020.0wx-wx0---01023.01000.7 0.0---------
2019-06-29 02:00:00 7.7 5.7 6.4--- 8720.0wx-wx0---01023.01000.7 0.2---------
2019-06-29 01:00:00 8.4 6.2 7.0--- 8620.0wx-wx0---01022.81000.6 0.1---------
2019-06-29 00:00:00 10.4 6.3 7.9--- 7620.0wx-wx1wx--11022.81000.7 0.5- 0.06------
1.7 ms

 

Print Friendly, PDF & Email